createdAt,value
2018-11-23T00:00:15.112Z,2.20
2018-11-23T00:02:44.877Z,2.20
2018-11-23T00:05:13.571Z,2.20
2018-11-23T00:07:42.866Z,2.30
2018-11-23T00:10:13.543Z,2.30
2018-11-23T00:12:42.285Z,2.30
2018-11-23T00:15:13.494Z,2.30
2018-11-23T00:17:42.292Z,2.30
2018-11-23T00:20:16.218Z,2.30
2018-11-23T00:22:44.894Z,2.30
2018-11-23T00:25:15.842Z,2.30
2018-11-23T00:27:44.561Z,2.40
2018-11-23T00:30:17.704Z,2.30
2018-11-23T00:32:46.715Z,2.30
2018-11-23T00:35:17.109Z,2.30
2018-11-23T00:37:46.139Z,2.20
2018-11-23T00:40:24.090Z,2.30
2018-11-23T00:42:53.015Z,2.30
2018-11-23T00:45:21.843Z,2.30
2018-11-23T00:47:51.001Z,2.30
2018-11-23T00:50:20.798Z,2.30
2018-11-23T00:52:49.821Z,2.30
2018-11-23T00:55:19.542Z,2.30
2018-11-23T00:57:48.193Z,2.30
2018-11-23T01:00:20.381Z,2.20
2018-11-23T01:02:49.066Z,2.20
2018-11-23T01:05:18.533Z,2.20
2018-11-23T01:07:47.791Z,2.10
2018-11-23T01:10:17.807Z,2.20
2018-11-23T01:12:47.609Z,2.20
2018-11-23T01:15:16.363Z,2.20
2018-11-23T01:17:45.027Z,2.10
2018-11-23T01:20:16.889Z,2.20
2018-11-23T01:22:45.875Z,2.10
2018-11-23T01:25:15.702Z,2.20
2018-11-23T01:27:45.474Z,2.10
2018-11-23T01:30:18.348Z,2.10
2018-11-23T01:32:47.240Z,2.10
2018-11-23T01:35:15.886Z,2.20
2018-11-23T01:37:44.537Z,2.20
2018-11-23T01:40:15.687Z,2.10
2018-11-23T01:42:44.640Z,2.10
2018-11-23T01:45:13.774Z,2.10
2018-11-23T01:47:42.509Z,2.10
2018-11-23T01:50:15.327Z,2.00
2018-11-23T01:52:44.962Z,2.00
2018-11-23T01:55:14.182Z,2.00
2018-11-23T01:57:43.207Z,2.00
2018-11-23T02:00:14.625Z,2.00
2018-11-23T02:02:43.675Z,2.00
2018-11-23T02:05:12.393Z,2.00
2018-11-23T02:07:41.041Z,2.00
2018-11-23T02:10:11.162Z,2.00
2018-11-23T02:12:39.810Z,2.00
2018-11-23T02:15:11.044Z,2.00
2018-11-23T02:17:39.697Z,2.00
2018-11-23T02:20:10.558Z,2.10
2018-11-23T02:22:39.272Z,2.00
2018-11-23T02:25:08.015Z,2.00
2018-11-23T02:27:36.690Z,2.00
2018-11-23T02:30:09.340Z,2.00
2018-11-23T02:32:38.017Z,1.90
2018-11-23T02:35:06.675Z,1.90
2018-11-23T02:37:35.334Z,1.90
2018-11-23T02:40:04.030Z,1.90
2018-11-23T02:42:33.708Z,1.90
2018-11-23T02:45:02.319Z,1.90
2018-11-23T02:47:30.987Z,1.90
2018-11-23T02:49:59.634Z,1.90
2018-11-23T02:52:28.274Z,1.90
2018-11-23T02:54:56.889Z,1.90
2018-11-23T02:57:25.531Z,1.90
2018-11-23T02:59:54.153Z,1.90
2018-11-23T03:02:22.813Z,1.80
2018-11-23T03:04:51.464Z,1.80
2018-11-23T03:07:20.106Z,1.80
2018-11-23T03:09:48.754Z,1.80
2018-11-23T03:12:17.387Z,1.80
2018-11-23T03:14:45.989Z,1.80
2018-11-23T03:17:14.637Z,1.80
2018-11-23T03:19:43.258Z,1.80
2018-11-23T03:22:11.889Z,1.80
2018-11-23T03:24:40.524Z,1.70
2018-11-23T03:27:09.198Z,1.80
2018-11-23T03:29:37.819Z,1.70
2018-11-23T03:32:06.477Z,1.80
2018-11-23T03:34:35.093Z,1.70
2018-11-23T03:37:04.199Z,1.70
2018-11-23T03:39:34.118Z,1.70
2018-11-23T03:42:01.531Z,1.70
2018-11-23T03:44:30.143Z,1.70
2018-11-23T03:46:58.786Z,1.70
2018-11-23T03:49:27.389Z,1.70
2018-11-23T03:51:56.010Z,1.70
2018-11-23T03:54:24.627Z,1.60
2018-11-23T03:56:53.270Z,1.60
2018-11-23T03:59:21.884Z,1.60
2018-11-23T04:01:50.595Z,1.60
2018-11-23T04:04:19.246Z,1.60
2018-11-23T04:06:47.883Z,1.60
2018-11-23T04:09:16.510Z,1.60
2018-11-23T04:11:45.139Z,1.50
2018-11-23T04:14:13.774Z,1.50
2018-11-23T04:16:42.477Z,1.50
2018-11-23T04:19:11.125Z,1.40
2018-11-23T04:21:39.776Z,1.40
2018-11-23T04:24:08.415Z,1.40
2018-11-23T04:26:37.062Z,1.40
2018-11-23T04:29:06.020Z,1.40
2018-11-23T04:31:34.673Z,1.40
2018-11-23T04:34:03.426Z,1.40
2018-11-23T04:36:32.075Z,1.40
2018-11-23T04:39:00.715Z,1.40
2018-11-23T04:41:29.338Z,1.40
2018-11-23T04:43:57.951Z,1.40
2018-11-23T04:46:26.586Z,1.40
2018-11-23T04:48:55.242Z,1.40
2018-11-23T04:51:23.911Z,1.40
2018-11-23T04:53:52.525Z,1.40
2018-11-23T04:56:21.174Z,1.40
2018-11-23T04:58:50.083Z,1.40
2018-11-23T05:01:18.726Z,1.40
2018-11-23T05:03:47.388Z,1.40
2018-11-23T05:06:16.050Z,1.30
2018-11-23T05:08:45.178Z,1.30
2018-11-23T05:11:14.051Z,1.30
2018-11-23T05:13:42.667Z,1.30
2018-11-23T05:16:11.314Z,1.30
2018-11-23T05:18:39.945Z,1.30
2018-11-23T05:21:08.585Z,1.40
2018-11-23T05:23:37.189Z,1.40
2018-11-23T05:26:06.261Z,1.40
2018-11-23T05:28:34.884Z,1.40
2018-11-23T05:31:03.587Z,1.30
2018-11-23T05:33:32.239Z,1.30
2018-11-23T05:36:01.134Z,1.30
2018-11-23T05:38:29.923Z,1.30
2018-11-23T05:40:58.559Z,1.20
2018-11-23T05:43:27.189Z,1.30
2018-11-23T05:45:55.816Z,1.30
2018-11-23T05:48:26.930Z,1.20
2018-11-23T05:50:53.175Z,1.20
2018-11-23T05:53:21.803Z,1.30
2018-11-23T05:55:50.454Z,1.30
2018-11-23T05:58:19.090Z,1.30
2018-11-23T06:00:47.710Z,1.30
2018-11-23T06:03:16.412Z,1.30
2018-11-23T06:05:45.067Z,1.30
2018-11-23T06:08:13.688Z,1.30
2018-11-23T06:10:42.324Z,1.30
2018-11-23T06:13:10.962Z,1.30
2018-11-23T06:15:44.362Z,1.30
2018-11-23T06:18:08.321Z,1.30
2018-11-23T06:20:36.923Z,1.30
2018-11-23T06:23:05.613Z,1.30
2018-11-23T06:25:38.397Z,1.30
2018-11-23T06:28:07.073Z,1.30
2018-11-23T06:30:35.709Z,1.30
2018-11-23T06:33:15.726Z,1.20
2018-11-23T06:35:44.337Z,1.30
2018-11-23T06:38:12.953Z,1.30
2018-11-23T06:40:41.587Z,1.30
2018-11-23T06:43:10.333Z,1.30
2018-11-23T06:45:40.703Z,1.40
2018-11-23T06:48:10.195Z,1.30
2018-11-23T06:50:38.861Z,1.30
2018-11-23T06:53:07.748Z,1.30
2018-11-23T06:55:36.525Z,1.40
2018-11-23T06:58:05.343Z,1.30
2018-11-23T07:00:34.002Z,1.30
2018-11-23T07:03:02.783Z,1.40
2018-11-23T07:05:31.428Z,1.40
2018-11-23T07:08:00.112Z,1.40
2018-11-23T07:10:28.758Z,1.40
2018-11-23T07:12:57.380Z,1.50
2018-11-23T07:15:26.022Z,1.60
2018-11-23T07:17:54.647Z,1.60
2018-11-23T07:20:23.321Z,1.80
2018-11-23T07:22:51.958Z,1.90
2018-11-23T07:25:20.621Z,1.70
2018-11-23T07:27:49.258Z,1.70
2018-11-23T07:30:26.312Z,1.80
2018-11-23T07:32:55.018Z,1.80
2018-11-23T07:35:23.659Z,1.80
2018-11-23T07:37:52.339Z,1.80
2018-11-23T07:40:34.962Z,1.80
2018-11-23T07:43:09.986Z,1.90
2018-11-23T07:45:38.642Z,1.90
2018-11-23T07:48:07.969Z,2.00
2018-11-23T07:50:36.611Z,1.90
2018-11-23T07:53:05.375Z,1.90
2018-11-23T07:55:34.019Z,2.00
2018-11-23T07:58:03.300Z,2.00
2018-11-23T08:00:31.946Z,2.00
2018-11-23T08:03:00.564Z,2.00
2018-11-23T08:05:29.236Z,2.00
2018-11-23T08:07:57.875Z,2.00
2018-11-23T08:10:25.722Z,2.00
2018-11-23T08:12:54.330Z,2.10
2018-11-23T08:15:24.282Z,2.20
2018-11-23T08:17:52.931Z,2.30
2018-11-23T08:20:22.866Z,2.30
2018-11-23T08:22:51.553Z,2.30
2018-11-23T08:25:21.285Z,2.20
2018-11-23T08:27:51.052Z,2.20
2018-11-23T08:30:23.471Z,2.30
2018-11-23T08:32:52.136Z,2.30
2018-11-23T08:35:20.960Z,2.30
2018-11-23T08:37:49.573Z,2.40
2018-11-23T08:40:20.331Z,2.40
2018-11-23T08:42:49.714Z,2.40
2018-11-23T08:45:20.254Z,2.40
2018-11-23T08:47:48.981Z,2.40
2018-11-23T08:50:22.062Z,2.50
2018-11-23T08:52:50.735Z,2.50
2018-11-23T08:55:19.694Z,2.50
2018-11-23T08:57:48.315Z,2.50
2018-11-23T09:00:20.895Z,2.50
2018-11-23T09:02:50.766Z,2.60
2018-11-23T09:05:19.510Z,2.60
2018-11-23T09:07:49.174Z,2.60
2018-11-23T09:10:22.314Z,2.70
2018-11-23T09:12:53.586Z,2.70
2018-11-23T09:15:22.216Z,2.70
2018-11-23T09:17:50.858Z,2.70
2018-11-23T09:20:19.805Z,2.80
2018-11-23T09:22:48.442Z,2.80
2018-11-23T09:25:19.282Z,2.90
2018-11-23T09:27:47.959Z,2.90
2018-11-23T09:30:23.582Z,2.90
2018-11-23T09:32:53.006Z,2.90
2018-11-23T09:35:21.655Z,3.00
2018-11-23T09:37:50.706Z,3.10
2018-11-23T09:40:20.768Z,3.10
2018-11-23T09:42:49.652Z,3.10
2018-11-23T09:45:19.652Z,3.10
2018-11-23T09:47:49.320Z,3.20
2018-11-23T09:50:19.915Z,3.20
2018-11-23T09:52:50.155Z,3.20
2018-11-23T09:55:18.933Z,3.20
2018-11-23T09:57:47.542Z,3.30
2018-11-23T10:00:25.390Z,3.30
2018-11-23T10:02:54.946Z,3.30
2018-11-23T10:05:24.335Z,3.30
2018-11-23T10:07:54.551Z,3.30
2018-11-23T10:10:23.867Z,3.40
2018-11-23T10:12:52.559Z,3.40
2018-11-23T10:15:21.982Z,3.30
2018-11-23T10:17:50.636Z,3.50
2018-11-23T10:20:24.302Z,3.50
2018-11-23T10:22:52.944Z,3.60
2018-11-23T10:25:22.891Z,3.60
2018-11-23T10:27:51.518Z,3.60
2018-11-23T10:30:23.443Z,3.60
2018-11-23T10:32:53.207Z,3.60
2018-11-23T10:35:21.894Z,3.60
2018-11-23T10:37:51.863Z,3.60
2018-11-23T10:40:22.667Z,3.60
2018-11-23T10:42:51.402Z,3.50
2018-11-23T10:45:22.119Z,3.40
2018-11-23T10:47:51.466Z,3.60
2018-11-23T10:50:21.347Z,3.60
2018-11-23T10:52:50.087Z,3.60
2018-11-23T10:55:20.531Z,3.60
2018-11-23T10:57:49.336Z,3.60
2018-11-23T11:00:23.788Z,3.60
2018-11-23T11:02:58.834Z,3.60
2018-11-23T11:05:32.654Z,3.50
2018-11-23T11:08:02.518Z,3.50
2018-11-23T11:10:31.208Z,3.50
2018-11-23T11:12:59.858Z,3.50
2018-11-23T11:15:28.473Z,3.50
2018-11-23T11:17:57.129Z,3.40
2018-11-23T11:20:25.773Z,3.40
2018-11-23T11:22:54.436Z,3.50
2018-11-23T11:25:23.076Z,3.50
2018-11-23T11:27:51.721Z,3.60
2018-11-23T11:30:20.669Z,3.50
2018-11-23T11:32:49.746Z,3.50
2018-11-23T11:35:18.367Z,3.50
2018-11-23T11:37:46.999Z,3.60
2018-11-23T11:40:17.118Z,3.50
2018-11-23T11:42:45.906Z,3.60
2018-11-23T11:45:15.859Z,3.60
2018-11-23T11:47:45.058Z,3.60
2018-11-23T11:50:14.141Z,3.60
2018-11-23T11:52:43.982Z,3.70
2018-11-23T11:55:14.466Z,3.70
2018-11-23T11:57:43.570Z,3.70
2018-11-23T12:00:14.102Z,3.80
2018-11-23T12:02:42.775Z,3.80
2018-11-23T12:05:12.270Z,3.80
2018-11-23T12:07:41.209Z,3.80
2018-11-23T12:10:12.405Z,3.80
2018-11-23T12:12:41.048Z,3.80
2018-11-23T12:15:10.830Z,3.80
2018-11-23T12:17:39.841Z,3.80
2018-11-23T12:20:10.964Z,3.80
2018-11-23T12:22:39.666Z,3.90
2018-11-23T12:25:08.327Z,4.10
2018-11-23T12:27:37.018Z,4.10
2018-11-23T12:30:09.831Z,4.10
2018-11-23T12:32:38.525Z,4.00
2018-11-23T12:35:08.322Z,4.00
2018-11-23T12:37:36.950Z,3.90
2018-11-23T12:40:06.976Z,3.90
2018-11-23T12:42:35.609Z,3.90
2018-11-23T12:45:04.444Z,3.90
2018-11-23T12:47:33.142Z,3.90
2018-11-23T12:50:01.750Z,3.90
2018-11-23T12:52:30.394Z,3.90
2018-11-23T12:54:59.001Z,4.00
2018-11-23T12:57:27.703Z,4.10
2018-11-23T12:59:56.319Z,4.10
2018-11-23T13:02:24.979Z,4.10
2018-11-23T13:04:53.598Z,4.00
2018-11-23T13:07:22.262Z,4.00
2018-11-23T13:09:50.930Z,4.00
2018-11-23T13:12:19.579Z,4.00
2018-11-23T13:14:48.201Z,3.90
2018-11-23T13:17:16.838Z,3.90
2018-11-23T13:19:45.491Z,3.80
2018-11-23T13:22:14.120Z,3.80
2018-11-23T13:24:42.774Z,3.70
2018-11-23T13:27:14.475Z,3.70
2018-11-23T13:29:43.363Z,3.80
2018-11-23T13:32:11.991Z,3.70
2018-11-23T13:34:40.642Z,3.80
2018-11-23T13:37:09.279Z,3.60
2018-11-23T13:39:37.986Z,3.70
2018-11-23T13:42:06.705Z,3.60
2018-11-23T13:44:35.579Z,3.60
2018-11-23T13:47:04.247Z,3.60
2018-11-23T13:49:32.894Z,3.50
2018-11-23T13:52:01.553Z,3.50
2018-11-23T13:54:30.158Z,3.50
2018-11-23T13:56:58.795Z,3.50
2018-11-23T13:59:27.420Z,3.50
2018-11-23T14:01:56.085Z,3.50
2018-11-23T14:04:24.722Z,3.50
2018-11-23T14:06:53.431Z,3.50
2018-11-23T14:09:22.117Z,3.50
2018-11-23T14:11:50.755Z,3.60
2018-11-23T14:14:19.405Z,3.60
2018-11-23T14:16:48.026Z,3.50
2018-11-23T14:19:16.634Z,3.50
2018-11-23T14:21:45.284Z,3.50
2018-11-23T14:24:13.898Z,3.40
2018-11-23T14:26:42.548Z,3.40
2018-11-23T14:29:11.196Z,3.40
2018-11-23T14:31:39.839Z,3.40
2018-11-23T14:34:08.495Z,3.30
2018-11-23T14:36:37.140Z,3.40
2018-11-23T14:39:07.813Z,3.40
2018-11-23T14:41:36.748Z,3.50
2018-11-23T14:44:06.939Z,3.60
2018-11-23T14:46:34.177Z,3.60
2018-11-23T14:49:02.817Z,3.60
2018-11-23T14:51:31.450Z,3.50
2018-11-23T14:54:00.124Z,3.50
2018-11-23T14:56:28.784Z,3.50
2018-11-23T14:58:57.411Z,3.50
2018-11-23T15:01:26.262Z,3.40
2018-11-23T15:03:54.902Z,3.40
2018-11-23T15:06:23.529Z,3.40
2018-11-23T15:08:55.738Z,3.40
2018-11-23T15:11:24.489Z,3.40
2018-11-23T15:13:53.151Z,3.40
2018-11-23T15:16:21.814Z,3.30
2018-11-23T15:18:50.481Z,3.30
2018-11-23T15:21:19.082Z,3.20
2018-11-23T15:23:47.724Z,3.10
2018-11-23T15:26:16.381Z,3.10
2018-11-23T15:28:45.026Z,3.10
2018-11-23T15:31:13.670Z,3.10
2018-11-23T15:33:42.304Z,3.10
2018-11-23T15:36:17.650Z,3.10
2018-11-23T15:38:46.286Z,3.00
2018-11-23T15:41:14.971Z,3.00
2018-11-23T15:43:43.585Z,3.00
2018-11-23T15:46:12.237Z,3.00
2018-11-23T15:48:40.862Z,3.00
2018-11-23T15:51:10.588Z,3.10
2018-11-23T15:53:39.242Z,3.00
2018-11-23T15:56:07.923Z,3.10
2018-11-23T15:58:36.567Z,3.00
2018-11-23T16:01:05.450Z,3.10
2018-11-23T16:03:34.155Z,3.10
2018-11-23T16:06:02.886Z,3.10
2018-11-23T16:08:31.552Z,3.10
2018-11-23T16:11:00.245Z,3.10
2018-11-23T16:13:28.875Z,3.10
2018-11-23T16:15:57.540Z,3.00
2018-11-23T16:18:26.156Z,3.10
2018-11-23T16:20:54.853Z,3.00
2018-11-23T16:23:23.515Z,3.10
2018-11-23T16:25:58.493Z,3.00
2018-11-23T16:28:27.125Z,3.10
2018-11-23T16:30:55.771Z,3.00
2018-11-23T16:33:28.030Z,3.00
2018-11-23T16:35:56.682Z,3.00
2018-11-23T16:38:25.510Z,3.10
2018-11-23T16:40:56.481Z,3.00
2018-11-23T16:43:25.130Z,3.00
2018-11-23T16:45:53.793Z,3.00
2018-11-23T16:48:22.946Z,3.00
2018-11-23T16:50:51.595Z,3.00
2018-11-23T16:53:20.220Z,3.00
2018-11-23T16:55:55.140Z,2.90
2018-11-23T16:58:23.798Z,3.00
2018-11-23T17:00:52.688Z,3.00
2018-11-23T17:03:22.331Z,3.00
2018-11-23T17:05:54.251Z,3.00
2018-11-23T17:08:22.932Z,3.00
2018-11-23T17:10:51.666Z,2.90
2018-11-23T17:13:20.325Z,2.90
2018-11-23T17:15:49.051Z,2.80
2018-11-23T17:18:17.698Z,2.80
2018-11-23T17:20:46.333Z,2.80
2018-11-23T17:23:15.035Z,2.70
2018-11-23T17:25:43.722Z,2.80
2018-11-23T17:28:12.772Z,2.70
2018-11-23T17:30:41.493Z,2.70
2018-11-23T17:33:10.129Z,2.60
2018-11-23T17:35:38.762Z,2.60
2018-11-23T17:38:07.387Z,2.60
2018-11-23T17:40:37.831Z,2.60
2018-11-23T17:43:06.733Z,2.60
2018-11-23T17:45:35.526Z,2.50
2018-11-23T17:48:04.142Z,2.50
2018-11-23T17:50:34.035Z,2.40
2018-11-23T17:53:02.746Z,2.40
2018-11-23T17:55:31.421Z,2.30
2018-11-23T17:58:00.152Z,2.20
2018-11-23T18:00:29.960Z,2.10
2018-11-23T18:02:59.493Z,2.10
2018-11-23T18:05:28.923Z,2.10
2018-11-23T18:07:57.875Z,2.00
2018-11-23T18:10:27.929Z,2.00
2018-11-23T18:12:57.189Z,1.90
2018-11-23T18:15:27.129Z,1.90
2018-11-23T18:17:56.843Z,1.80
2018-11-23T18:20:26.526Z,1.80
2018-11-23T18:22:56.046Z,1.80
2018-11-23T18:25:26.306Z,1.90
2018-11-23T18:28:00.382Z,1.80
2018-11-23T18:30:31.186Z,1.80
2018-11-23T18:33:00.400Z,1.80
2018-11-23T18:35:29.183Z,1.80
2018-11-23T18:37:57.878Z,1.80
2018-11-23T18:40:27.417Z,1.90
2018-11-23T18:42:56.617Z,1.90
2018-11-23T18:45:26.428Z,1.90
2018-11-23T18:47:55.146Z,1.80
2018-11-23T18:50:24.930Z,1.80
2018-11-23T18:52:53.596Z,1.80
2018-11-23T18:55:22.376Z,1.70
2018-11-23T18:57:51.216Z,1.70
2018-11-23T19:00:19.932Z,1.70
2018-11-23T19:02:48.718Z,1.80
2018-11-23T19:05:22.304Z,1.70
2018-11-23T19:07:50.956Z,1.70
2018-11-23T19:10:19.729Z,1.70
2018-11-23T19:12:48.390Z,1.70
2018-11-23T19:15:25.180Z,1.60
2018-11-23T19:17:46.918Z,1.60
2018-11-23T19:20:19.510Z,1.60
2018-11-23T19:22:49.391Z,1.50
2018-11-23T19:25:18.093Z,1.50
2018-11-23T19:27:46.758Z,1.50
2018-11-23T19:30:16.656Z,1.50
2018-11-23T19:32:45.380Z,1.50
2018-11-23T19:35:14.100Z,1.40
2018-11-23T19:37:42.768Z,1.30
2018-11-23T19:40:15.395Z,1.30
2018-11-23T19:42:44.794Z,1.20
2018-11-23T19:45:14.412Z,1.20
2018-11-23T19:47:43.106Z,1.10
2018-11-23T19:50:16.438Z,1.10
2018-11-23T19:52:45.164Z,1.10
2018-11-23T19:55:14.775Z,1.10
2018-11-23T19:57:43.398Z,1.10
2018-11-23T20:00:14.442Z,1.10
2018-11-23T20:02:43.110Z,1.10
2018-11-23T20:05:11.787Z,1.00
2018-11-23T20:07:40.446Z,1.00
2018-11-23T20:10:11.387Z,1.00
2018-11-23T20:12:40.097Z,1.00
2018-11-23T20:15:11.245Z,0.90
2018-11-23T20:17:46.587Z,0.90
2018-11-23T20:20:15.958Z,0.80
2018-11-23T20:22:45.021Z,0.80
2018-11-23T20:25:17.980Z,0.80
2018-11-23T20:27:47.213Z,0.90
2018-11-23T20:30:16.668Z,0.90
2018-11-23T20:32:45.507Z,0.90
2018-11-23T20:35:16.255Z,0.90
2018-11-23T20:37:44.934Z,0.80
2018-11-23T20:40:17.664Z,0.80
2018-11-23T20:42:46.359Z,0.90
2018-11-23T20:45:15.151Z,1.00
2018-11-23T20:47:43.811Z,1.00
2018-11-23T20:50:13.625Z,1.00
2018-11-23T20:52:42.297Z,1.00
2018-11-23T20:55:13.082Z,1.00
2018-11-23T20:57:41.782Z,1.10
2018-11-23T21:00:13.710Z,1.10
2018-11-23T21:02:45.401Z,1.10
2018-11-23T21:05:15.989Z,1.10
2018-11-23T21:07:44.658Z,1.00
2018-11-23T21:10:20.233Z,1.00
2018-11-23T21:12:48.140Z,1.10
2018-11-23T21:15:27.459Z,1.10
2018-11-23T21:17:56.871Z,1.20
2018-11-23T21:20:25.566Z,1.20
2018-11-23T21:22:54.245Z,1.20
2018-11-23T21:25:22.887Z,1.20
2018-11-23T21:27:51.653Z,1.20
2018-11-23T21:30:22.606Z,1.20
2018-11-23T21:32:51.880Z,1.20
2018-11-23T21:35:20.508Z,1.20
2018-11-23T21:37:49.189Z,1.30
2018-11-23T21:40:17.966Z,1.30
2018-11-23T21:42:46.627Z,1.30
2018-11-23T21:45:17.076Z,1.30
2018-11-23T21:47:45.761Z,1.30
2018-11-23T21:50:16.523Z,1.30
2018-11-23T21:52:45.210Z,1.40
2018-11-23T21:55:17.753Z,1.40
2018-11-23T21:57:46.398Z,1.40
2018-11-23T22:00:15.920Z,1.40
2018-11-23T22:02:44.662Z,1.40
2018-11-23T22:05:13.363Z,1.30
2018-11-23T22:07:42.054Z,1.30
2018-11-23T22:10:18.107Z,1.30
2018-11-23T22:12:46.897Z,1.30
2018-11-23T22:15:17.743Z,1.40
2018-11-23T22:17:46.864Z,1.30
2018-11-23T22:20:16.690Z,1.40
2018-11-23T22:22:45.346Z,1.30
2018-11-23T22:25:15.015Z,1.40
2018-11-23T22:27:43.904Z,1.40
2018-11-23T22:30:15.909Z,1.40
2018-11-23T22:32:44.601Z,1.40
2018-11-23T22:35:13.639Z,1.40
2018-11-23T22:37:42.287Z,1.40
2018-11-23T22:40:14.070Z,1.40
2018-11-23T22:42:46.934Z,1.40
2018-11-23T22:45:16.439Z,1.40
2018-11-23T22:47:45.168Z,1.40
2018-11-23T22:50:16.929Z,1.40
2018-11-23T22:52:45.558Z,1.40
2018-11-23T22:55:15.845Z,1.40
2018-11-23T22:57:44.610Z,1.40
2018-11-23T23:00:55.882Z,1.50
2018-11-23T23:03:24.539Z,1.50
2018-11-23T23:05:53.187Z,1.50
2018-11-23T23:08:21.803Z,1.60
2018-11-23T23:10:50.453Z,1.60
2018-11-23T23:13:19.148Z,1.60
2018-11-23T23:15:47.785Z,1.60
2018-11-23T23:18:16.409Z,1.60
2018-11-23T23:20:45.043Z,1.50
2018-11-23T23:23:20.163Z,1.50
2018-11-23T23:25:48.793Z,1.50
2018-11-23T23:28:17.526Z,1.50
2018-11-23T23:30:46.187Z,1.40
2018-11-23T23:33:14.782Z,1.40
2018-11-23T23:35:43.422Z,1.50
2018-11-23T23:38:12.037Z,1.50
2018-11-23T23:40:40.705Z,1.50
2018-11-23T23:43:09.338Z,1.60
2018-11-23T23:45:37.973Z,1.60
2018-11-23T23:48:06.614Z,1.60
2018-11-23T23:50:35.251Z,1.60
2018-11-23T23:53:03.869Z,1.60
2018-11-23T23:55:32.515Z,1.70
2018-11-23T23:58:01.120Z,1.80
